sensor_id;sensor_type;location;lat;lon;timestamp;P1;durP1;ratioP1;P2;durP2;ratioP2
74371;SDS011;62885;51.374;6.170;2022-10-17T00:00:22;6.53;;;3.40;;
74371;SDS011;62885;51.374;6.170;2022-10-17T00:02:48;6.60;;;3.38;;
74371;SDS011;62885;51.374;6.170;2022-10-17T00:05:14;6.03;;;3.83;;
74371;SDS011;62885;51.374;6.170;2022-10-17T00:07:39;8.82;;;3.55;;
74371;SDS011;62885;51.374;6.170;2022-10-17T00:10:05;6.90;;;3.67;;
74371;SDS011;62885;51.374;6.170;2022-10-17T00:12:31;7.63;;;4.10;;
74371;SDS011;62885;51.374;6.170;2022-10-17T00:14:57;6.88;;;3.47;;
74371;SDS011;62885;51.374;6.170;2022-10-17T00:17:23;6.60;;;3.38;;
74371;SDS011;62885;51.374;6.170;2022-10-17T00:19:48;7.78;;;3.97;;
74371;SDS011;62885;51.374;6.170;2022-10-17T00:22:14;7.32;;;3.55;;
74371;SDS011;62885;51.374;6.170;2022-10-17T00:24:39;6.65;;;3.80;;
74371;SDS011;62885;51.374;6.170;2022-10-17T00:27:05;7.40;;;3.90;;
74371;SDS011;62885;51.374;6.170;2022-10-17T00:29:30;6.63;;;3.95;;
74371;SDS011;62885;51.374;6.170;2022-10-17T00:31:56;8.73;;;3.75;;
74371;SDS011;62885;51.374;6.170;2022-10-17T00:34:22;7.82;;;4.10;;
74371;SDS011;62885;51.374;6.170;2022-10-17T00:36:47;9.57;;;4.35;;
74371;SDS011;62885;51.374;6.170;2022-10-17T00:39:13;7.68;;;4.25;;
74371;SDS011;62885;51.374;6.170;2022-10-17T00:41:38;6.72;;;4.32;;
74371;SDS011;62885;51.374;6.170;2022-10-17T00:44:05;7.53;;;4.53;;
74371;SDS011;62885;51.374;6.170;2022-10-17T00:46:51;8.05;;;3.53;;
74371;SDS011;62885;51.374;6.170;2022-10-17T00:49:16;6.80;;;4.22;;
74371;SDS011;62885;51.374;6.170;2022-10-17T00:51:44;9.60;;;3.97;;
74371;SDS011;62885;51.374;6.170;2022-10-17T00:54:13;7.35;;;4.05;;
74371;SDS011;62885;51.374;6.170;2022-10-17T00:56:41;8.90;;;4.47;;
74371;SDS011;62885;51.374;6.170;2022-10-17T00:59:11;10.57;;;4.05;;
74371;SDS011;62885;51.374;6.170;2022-10-17T01:01:41;8.05;;;4.47;;
74371;SDS011;62885;51.374;6.170;2022-10-17T01:04:12;7.88;;;4.35;;
74371;SDS011;62885;51.374;6.170;2022-10-17T01:06:38;8.60;;;4.20;;
74371;SDS011;62885;51.374;6.170;2022-10-17T01:09:03;7.82;;;4.80;;
74371;SDS011;62885;51.374;6.170;2022-10-17T01:11:36;7.68;;;4.47;;
74371;SDS011;62885;51.374;6.170;2022-10-17T01:14:13;7.45;;;3.55;;
74371;SDS011;62885;51.374;6.170;2022-10-17T01:16:59;8.65;;;4.43;;
74371;SDS011;62885;51.374;6.170;2022-10-17T01:22:11;6.60;;;4.22;;
74371;SDS011;62885;51.374;6.170;2022-10-17T01:24:58;9.57;;;4.50;;
74371;SDS011;62885;51.374;6.170;2022-10-17T01:32:53;9.65;;;4.93;;
74371;SDS011;62885;51.374;6.170;2022-10-17T01:38:14;7.80;;;4.97;;
74371;SDS011;62885;51.374;6.170;2022-10-17T01:43:43;8.10;;;4.90;;
74371;SDS011;62885;51.374;6.170;2022-10-17T01:46:16;11.18;;;5.28;;
74371;SDS011;62885;51.374;6.170;2022-10-17T01:48:49;9.65;;;4.80;;
74371;SDS011;62885;51.374;6.170;2022-10-17T01:51:27;9.80;;;4.72;;
74371;SDS011;62885;51.374;6.170;2022-10-17T01:53:58;8.23;;;4.20;;
74371;SDS011;62885;51.374;6.170;2022-10-17T01:56:29;7.20;;;4.30;;
74371;SDS011;62885;51.374;6.170;2022-10-17T01:59:01;11.38;;;4.85;;
74371;SDS011;62885;51.374;6.170;2022-10-17T02:01:31;9.65;;;4.78;;
74371;SDS011;62885;51.374;6.170;2022-10-17T02:03:58;9.02;;;5.15;;
74371;SDS011;62885;51.374;6.170;2022-10-17T02:06:25;7.78;;;5.10;;
74371;SDS011;62885;51.374;6.170;2022-10-17T02:08:50;9.55;;;5.13;;
74371;SDS011;62885;51.374;6.170;2022-10-17T02:11:20;10.68;;;4.80;;
74371;SDS011;62885;51.374;6.170;2022-10-17T02:16:41;8.73;;;4.00;;
74371;SDS011;62885;51.374;6.170;2022-10-17T02:22:05;11.30;;;4.63;;
74371;SDS011;62885;51.374;6.170;2022-10-17T02:29:58;7.73;;;4.67;;
74371;SDS011;62885;51.374;6.170;2022-10-17T02:32:51;9.63;;;4.68;;
74371;SDS011;62885;51.374;6.170;2022-10-17T02:35:24;7.40;;;4.22;;
74371;SDS011;62885;51.374;6.170;2022-10-17T02:37:54;10.15;;;4.63;;
74371;SDS011;62885;51.374;6.170;2022-10-17T02:40:21;8.20;;;4.57;;
74371;SDS011;62885;51.374;6.170;2022-10-17T02:42:48;7.60;;;4.22;;
74371;SDS011;62885;51.374;6.170;2022-10-17T02:45:16;7.13;;;4.47;;
74371;SDS011;62885;51.374;6.170;2022-10-17T02:47:47;7.50;;;4.82;;
74371;SDS011;62885;51.374;6.170;2022-10-17T02:50:14;8.23;;;4.53;;
74371;SDS011;62885;51.374;6.170;2022-10-17T02:52:45;8.00;;;4.25;;
74371;SDS011;62885;51.374;6.170;2022-10-17T02:57:49;8.85;;;4.05;;
74371;SDS011;62885;51.374;6.170;2022-10-17T03:00:18;7.55;;;4.22;;
74371;SDS011;62885;51.374;6.170;2022-10-17T03:02:46;8.23;;;5.05;;
74371;SDS011;62885;51.374;6.170;2022-10-17T03:05:26;11.90;;;5.30;;
74371;SDS011;62885;51.374;6.170;2022-10-17T03:07:53;7.88;;;4.88;;
74371;SDS011;62885;51.374;6.170;2022-10-17T03:10:19;8.93;;;4.50;;
74371;SDS011;62885;51.374;6.170;2022-10-17T03:12:45;8.55;;;4.70;;
74371;SDS011;62885;51.374;6.170;2022-10-17T03:15:11;8.43;;;4.53;;
74371;SDS011;62885;51.374;6.170;2022-10-17T03:17:37;8.65;;;5.00;;
74371;SDS011;62885;51.374;6.170;2022-10-17T03:20:03;10.50;;;5.38;;
74371;SDS011;62885;51.374;6.170;2022-10-17T03:22:29;10.00;;;4.95;;
74371;SDS011;62885;51.374;6.170;2022-10-17T03:24:54;7.97;;;4.47;;
74371;SDS011;62885;51.374;6.170;2022-10-17T03:27:19;8.38;;;4.75;;
74371;SDS011;62885;51.374;6.170;2022-10-17T03:29:45;9.43;;;4.90;;
74371;SDS011;62885;51.374;6.170;2022-10-17T03:32:10;8.07;;;4.85;;
74371;SDS011;62885;51.374;6.170;2022-10-17T03:34:35;7.53;;;4.93;;
74371;SDS011;62885;51.374;6.170;2022-10-17T03:37:01;11.90;;;4.70;;
74371;SDS011;62885;51.374;6.170;2022-10-17T03:39:26;9.43;;;4.97;;
74371;SDS011;62885;51.374;6.170;2022-10-17T03:41:51;9.35;;;4.88;;
74371;SDS011;62885;51.374;6.170;2022-10-17T03:44:17;8.95;;;5.03;;
74371;SDS011;62885;51.374;6.170;2022-10-17T03:46:42;9.40;;;4.50;;
74371;SDS011;62885;51.374;6.170;2022-10-17T03:49:08;8.88;;;5.22;;
74371;SDS011;62885;51.374;6.170;2022-10-17T03:51:34;8.77;;;5.35;;
74371;SDS011;62885;51.374;6.170;2022-10-17T03:53:59;9.00;;;4.43;;
74371;SDS011;62885;51.374;6.170;2022-10-17T03:56:25;9.95;;;5.00;;
74371;SDS011;62885;51.374;6.170;2022-10-17T03:58:51;7.88;;;4.55;;
74371;SDS011;62885;51.374;6.170;2022-10-17T04:01:17;8.60;;;4.82;;
74371;SDS011;62885;51.374;6.170;2022-10-17T04:03:43;9.63;;;5.07;;
74371;SDS011;62885;51.374;6.170;2022-10-17T04:06:10;10.93;;;5.55;;
74371;SDS011;62885;51.374;6.170;2022-10-17T04:08:36;10.27;;;4.93;;
74371;SDS011;62885;51.374;6.170;2022-10-17T04:11:02;7.90;;;4.95;;
74371;SDS011;62885;51.374;6.170;2022-10-17T04:13:30;9.10;;;5.18;;
74371;SDS011;62885;51.374;6.170;2022-10-17T04:16:00;8.50;;;5.05;;
74371;SDS011;62885;51.374;6.170;2022-10-17T04:18:30;11.98;;;4.10;;
74371;SDS011;62885;51.374;6.170;2022-10-17T04:20:56;9.23;;;4.82;;
74371;SDS011;62885;51.374;6.170;2022-10-17T04:23:21;11.82;;;4.78;;
74371;SDS011;62885;51.374;6.170;2022-10-17T04:25:47;11.43;;;5.20;;
74371;SDS011;62885;51.374;6.170;2022-10-17T04:28:13;8.57;;;4.47;;
74371;SDS011;62885;51.374;6.170;2022-10-17T04:30:39;9.88;;;5.07;;
74371;SDS011;62885;51.374;6.170;2022-10-17T04:33:04;8.60;;;5.25;;
74371;SDS011;62885;51.374;6.170;2022-10-17T04:35:29;8.23;;;4.95;;
74371;SDS011;62885;51.374;6.170;2022-10-17T04:37:55;8.57;;;4.68;;
74371;SDS011;62885;51.374;6.170;2022-10-17T04:40:20;10.00;;;5.25;;
74371;SDS011;62885;51.374;6.170;2022-10-17T04:42:46;9.82;;;4.95;;
74371;SDS011;62885;51.374;6.170;2022-10-17T04:45:11;10.00;;;4.53;;
74371;SDS011;62885;51.374;6.170;2022-10-17T04:47:36;8.93;;;5.57;;
74371;SDS011;62885;51.374;6.170;2022-10-17T04:50:02;9.35;;;4.68;;
74371;SDS011;62885;51.374;6.170;2022-10-17T04:52:28;9.10;;;4.95;;
74371;SDS011;62885;51.374;6.170;2022-10-17T04:54:54;10.32;;;5.35;;
74371;SDS011;62885;51.374;6.170;2022-10-17T04:57:19;8.63;;;4.80;;
74371;SDS011;62885;51.374;6.170;2022-10-17T04:59:45;7.90;;;4.40;;
74371;SDS011;62885;51.374;6.170;2022-10-17T05:02:10;8.57;;;4.95;;
74371;SDS011;62885;51.374;6.170;2022-10-17T05:04:35;8.85;;;5.38;;
74371;SDS011;62885;51.374;6.170;2022-10-17T05:07:01;11.00;;;4.78;;
74371;SDS011;62885;51.374;6.170;2022-10-17T05:09:27;9.48;;;4.75;;
74371;SDS011;62885;51.374;6.170;2022-10-17T05:11:53;9.50;;;5.20;;
74371;SDS011;62885;51.374;6.170;2022-10-17T05:14:18;8.95;;;4.72;;
74371;SDS011;62885;51.374;6.170;2022-10-17T05:16:43;7.50;;;4.22;;
74371;SDS011;62885;51.374;6.170;2022-10-17T05:19:09;8.30;;;4.60;;
74371;SDS011;62885;51.374;6.170;2022-10-17T05:21:35;8.23;;;4.90;;
74371;SDS011;62885;51.374;6.170;2022-10-17T05:24:03;9.52;;;5.13;;
74371;SDS011;62885;51.374;6.170;2022-10-17T05:26:30;8.30;;;5.05;;
74371;SDS011;62885;51.374;6.170;2022-10-17T05:28:55;8.73;;;4.50;;
74371;SDS011;62885;51.374;6.170;2022-10-17T05:31:22;9.77;;;5.57;;
74371;SDS011;62885;51.374;6.170;2022-10-17T05:33:47;8.23;;;5.13;;
74371;SDS011;62885;51.374;6.170;2022-10-17T05:36:13;8.25;;;5.10;;
74371;SDS011;62885;51.374;6.170;2022-10-17T05:38:38;8.18;;;5.28;;
74371;SDS011;62885;51.374;6.170;2022-10-17T05:41:04;8.63;;;5.28;;
74371;SDS011;62885;51.374;6.170;2022-10-17T05:43:30;8.90;;;4.90;;
74371;SDS011;62885;51.374;6.170;2022-10-17T05:45:56;9.88;;;5.40;;
74371;SDS011;62885;51.374;6.170;2022-10-17T05:48:22;9.73;;;5.38;;
74371;SDS011;62885;51.374;6.170;2022-10-17T05:50:48;10.02;;;4.70;;
74371;SDS011;62885;51.374;6.170;2022-10-17T05:53:14;8.98;;;5.22;;
74371;SDS011;62885;51.374;6.170;2022-10-17T05:55:40;11.30;;;5.35;;
74371;SDS011;62885;51.374;6.170;2022-10-17T05:58:05;12.70;;;5.60;;
74371;SDS011;62885;51.374;6.170;2022-10-17T06:00:31;9.02;;;5.07;;
74371;SDS011;62885;51.374;6.170;2022-10-17T06:02:56;10.20;;;5.13;;
74371;SDS011;62885;51.374;6.170;2022-10-17T06:05:22;9.73;;;4.25;;
74371;SDS011;62885;51.374;6.170;2022-10-17T06:07:47;8.73;;;4.63;;
74371;SDS011;62885;51.374;6.170;2022-10-17T06:10:16;13.60;;;5.35;;
74371;SDS011;62885;51.374;6.170;2022-10-17T06:12:43;13.00;;;5.30;;
74371;SDS011;62885;51.374;6.170;2022-10-17T06:15:08;10.85;;;5.50;;
74371;SDS011;62885;51.374;6.170;2022-10-17T06:17:34;8.98;;;4.78;;
74371;SDS011;62885;51.374;6.170;2022-10-17T06:20:00;11.15;;;4.65;;
74371;SDS011;62885;51.374;6.170;2022-10-17T06:22:25;10.30;;;5.13;;
74371;SDS011;62885;51.374;6.170;2022-10-17T06:24:51;8.98;;;5.13;;
74371;SDS011;62885;51.374;6.170;2022-10-17T06:27:17;9.90;;;4.95;;
74371;SDS011;62885;51.374;6.170;2022-10-17T06:29:43;11.88;;;5.20;;
74371;SDS011;62885;51.374;6.170;2022-10-17T06:32:08;11.65;;;5.40;;
74371;SDS011;62885;51.374;6.170;2022-10-17T06:34:34;8.77;;;4.93;;
74371;SDS011;62885;51.374;6.170;2022-10-17T06:36:59;8.80;;;4.90;;
74371;SDS011;62885;51.374;6.170;2022-10-17T06:39:24;8.67;;;5.40;;
74371;SDS011;62885;51.374;6.170;2022-10-17T06:41:51;11.80;;;5.65;;
74371;SDS011;62885;51.374;6.170;2022-10-17T06:44:16;8.10;;;4.85;;
74371;SDS011;62885;51.374;6.170;2022-10-17T06:46:41;9.98;;;6.22;;
74371;SDS011;62885;51.374;6.170;2022-10-17T06:49:08;10.50;;;5.35;;
74371;SDS011;62885;51.374;6.170;2022-10-17T06:51:34;8.60;;;5.55;;
74371;SDS011;62885;51.374;6.170;2022-10-17T06:54:01;10.05;;;5.60;;
74371;SDS011;62885;51.374;6.170;2022-10-17T06:56:26;10.30;;;6.03;;
74371;SDS011;62885;51.374;6.170;2022-10-17T06:58:52;12.40;;;5.60;;
74371;SDS011;62885;51.374;6.170;2022-10-17T07:01:18;8.65;;;5.32;;
74371;SDS011;62885;51.374;6.170;2022-10-17T07:03:46;9.02;;;5.43;;
74371;SDS011;62885;51.374;6.170;2022-10-17T07:06:13;8.75;;;5.25;;
74371;SDS011;62885;51.374;6.170;2022-10-17T07:08:42;12.70;;;5.70;;
74371;SDS011;62885;51.374;6.170;2022-10-17T07:11:12;9.23;;;5.22;;
74371;SDS011;62885;51.374;6.170;2022-10-17T07:13:42;8.88;;;5.85;;
74371;SDS011;62885;51.374;6.170;2022-10-17T07:16:08;9.75;;;5.90;;
74371;SDS011;62885;51.374;6.170;2022-10-17T07:18:34;12.40;;;5.03;;
74371;SDS011;62885;51.374;6.170;2022-10-17T07:20:59;10.05;;;6.45;;
74371;SDS011;62885;51.374;6.170;2022-10-17T07:23:24;11.25;;;5.38;;
74371;SDS011;62885;51.374;6.170;2022-10-17T07:25:50;8.48;;;5.43;;
74371;SDS011;62885;51.374;6.170;2022-10-17T07:28:15;8.70;;;5.18;;
74371;SDS011;62885;51.374;6.170;2022-10-17T07:30:41;9.95;;;5.65;;
74371;SDS011;62885;51.374;6.170;2022-10-17T07:33:06;9.80;;;5.50;;
74371;SDS011;62885;51.374;6.170;2022-10-17T07:35:32;8.95;;;5.25;;
74371;SDS011;62885;51.374;6.170;2022-10-17T07:37:58;16.67;;;6.43;;
74371;SDS011;62885;51.374;6.170;2022-10-17T07:40:23;9.05;;;5.43;;
74371;SDS011;62885;51.374;6.170;2022-10-17T07:42:49;9.68;;;5.72;;
74371;SDS011;62885;51.374;6.170;2022-10-17T07:45:14;13.13;;;6.15;;
74371;SDS011;62885;51.374;6.170;2022-10-17T07:47:40;10.52;;;5.85;;
74371;SDS011;62885;51.374;6.170;2022-10-17T07:50:05;10.85;;;5.70;;
74371;SDS011;62885;51.374;6.170;2022-10-17T07:52:31;9.48;;;5.80;;
74371;SDS011;62885;51.374;6.170;2022-10-17T07:54:57;12.63;;;6.47;;
74371;SDS011;62885;51.374;6.170;2022-10-17T07:57:22;9.90;;;6.32;;
74371;SDS011;62885;51.374;6.170;2022-10-17T07:59:48;9.95;;;5.22;;
74371;SDS011;62885;51.374;6.170;2022-10-17T08:02:17;8.82;;;4.93;;
74371;SDS011;62885;51.374;6.170;2022-10-17T08:04:46;7.20;;;3.88;;
74371;SDS011;62885;51.374;6.170;2022-10-17T08:07:11;8.48;;;4.45;;
74371;SDS011;62885;51.374;6.170;2022-10-17T08:09:37;8.70;;;4.93;;
74371;SDS011;62885;51.374;6.170;2022-10-17T08:12:02;8.25;;;4.25;;
74371;SDS011;62885;51.374;6.170;2022-10-17T08:14:28;10.18;;;4.43;;
74371;SDS011;62885;51.374;6.170;2022-10-17T08:16:53;8.70;;;4.60;;
74371;SDS011;62885;51.374;6.170;2022-10-17T08:19:19;8.60;;;4.50;;
74371;SDS011;62885;51.374;6.170;2022-10-17T08:21:44;9.43;;;4.10;;
74371;SDS011;62885;51.374;6.170;2022-10-17T08:24:10;9.32;;;4.60;;
74371;SDS011;62885;51.374;6.170;2022-10-17T08:26:36;8.93;;;3.83;;
74371;SDS011;62885;51.374;6.170;2022-10-17T08:29:02;8.02;;;4.45;;
74371;SDS011;62885;51.374;6.170;2022-10-17T08:31:27;12.13;;;4.50;;
74371;SDS011;62885;51.374;6.170;2022-10-17T08:33:53;7.13;;;3.85;;
74371;SDS011;62885;51.374;6.170;2022-10-17T08:36:18;8.27;;;4.03;;
74371;SDS011;62885;51.374;6.170;2022-10-17T08:38:44;8.52;;;4.45;;
74371;SDS011;62885;51.374;6.170;2022-10-17T08:41:18;8.65;;;3.55;;
74371;SDS011;62885;51.374;6.170;2022-10-17T08:43:52;6.85;;;3.60;;
74371;SDS011;62885;51.374;6.170;2022-10-17T08:46:30;10.25;;;3.60;;
74371;SDS011;62885;51.374;6.170;2022-10-17T08:49:02;9.13;;;3.85;;
74371;SDS011;62885;51.374;6.170;2022-10-17T08:51:36;8.02;;;4.03;;
74371;SDS011;62885;51.374;6.170;2022-10-17T08:54:14;8.00;;;3.60;;
74371;SDS011;62885;51.374;6.170;2022-10-17T08:56:50;7.95;;;3.70;;
74371;SDS011;62885;51.374;6.170;2022-10-17T08:59:25;6.55;;;4.18;;
74371;SDS011;62885;51.374;6.170;2022-10-17T09:07:37;9.40;;;4.97;;
74371;SDS011;62885;51.374;6.170;2022-10-17T09:10:09;8.02;;;3.47;;
74371;SDS011;62885;51.374;6.170;2022-10-17T09:18:31;7.45;;;4.10;;
74371;SDS011;62885;51.374;6.170;2022-10-17T09:21:04;8.05;;;3.83;;
74371;SDS011;62885;51.374;6.170;2022-10-17T09:23:52;6.75;;;3.72;;
74371;SDS011;62885;51.374;6.170;2022-10-17T09:26:22;6.50;;;3.67;;
74371;SDS011;62885;51.374;6.170;2022-10-17T09:28:53;7.28;;;3.58;;
74371;SDS011;62885;51.374;6.170;2022-10-17T09:31:28;8.48;;;3.40;;
74371;SDS011;62885;51.374;6.170;2022-10-17T09:33:59;7.10;;;3.80;;
74371;SDS011;62885;51.374;6.170;2022-10-17T09:36:27;8.10;;;3.83;;
74371;SDS011;62885;51.374;6.170;2022-10-17T09:38:57;7.53;;;3.72;;
74371;SDS011;62885;51.374;6.170;2022-10-17T09:41:35;7.35;;;3.95;;
74371;SDS011;62885;51.374;6.170;2022-10-17T09:49:46;13.07;;;3.53;;
74371;SDS011;62885;51.374;6.170;2022-10-17T09:52:16;6.47;;;3.60;;
74371;SDS011;62885;51.374;6.170;2022-10-17T09:54:49;7.35;;;3.53;;
74371;SDS011;62885;51.374;6.170;2022-10-17T09:57:18;6.43;;;3.72;;
74371;SDS011;62885;51.374;6.170;2022-10-17T09:59:45;7.43;;;3.58;;
74371;SDS011;62885;51.374;6.170;2022-10-17T10:02:20;8.88;;;4.10;;
74371;SDS011;62885;51.374;6.170;2022-10-17T10:04:53;15.73;;;4.72;;
74371;SDS011;62885;51.374;6.170;2022-10-17T10:07:38;8.73;;;3.92;;
74371;SDS011;62885;51.374;6.170;2022-10-17T10:10:05;9.32;;;3.60;;
74371;SDS011;62885;51.374;6.170;2022-10-17T10:12:37;10.20;;;4.45;;
74371;SDS011;62885;51.374;6.170;2022-10-17T10:15:28;9.23;;;3.92;;
74371;SDS011;62885;51.374;6.170;2022-10-17T10:18:01;10.15;;;4.10;;
74371;SDS011;62885;51.374;6.170;2022-10-17T10:20:31;8.60;;;4.57;;
74371;SDS011;62885;51.374;6.170;2022-10-17T10:25:56;7.05;;;4.50;;
74371;SDS011;62885;51.374;6.170;2022-10-17T10:28:24;8.25;;;3.90;;
74371;SDS011;62885;51.374;6.170;2022-10-17T10:30:53;9.95;;;4.68;;
74371;SDS011;62885;51.374;6.170;2022-10-17T10:33:24;11.95;;;5.18;;
74371;SDS011;62885;51.374;6.170;2022-10-17T10:36:02;8.95;;;4.72;;
74371;SDS011;62885;51.374;6.170;2022-10-17T10:38:31;10.13;;;6.10;;
74371;SDS011;62885;51.374;6.170;2022-10-17T10:41:05;12.93;;;5.00;;
74371;SDS011;62885;51.374;6.170;2022-10-17T10:43:43;10.23;;;4.28;;
74371;SDS011;62885;51.374;6.170;2022-10-17T10:49:02;12.15;;;4.97;;
74371;SDS011;62885;51.374;6.170;2022-10-17T10:51:34;13.93;;;4.13;;
74371;SDS011;62885;51.374;6.170;2022-10-17T10:56:55;9.40;;;5.43;;
74371;SDS011;62885;51.374;6.170;2022-10-17T10:59:28;10.48;;;4.82;;
74371;SDS011;62885;51.374;6.170;2022-10-17T11:02:03;7.25;;;4.82;;
74371;SDS011;62885;51.374;6.170;2022-10-17T11:10:00;10.25;;;4.40;;
74371;SDS011;62885;51.374;6.170;2022-10-17T11:12:44;14.07;;;6.18;;
74371;SDS011;62885;51.374;6.170;2022-10-17T11:15:29;13.15;;;5.18;;
74371;SDS011;62885;51.374;6.170;2022-10-17T11:18:07;8.48;;;4.78;;
74371;SDS011;62885;51.374;6.170;2022-10-17T11:23:18;8.52;;;4.65;;
74371;SDS011;62885;51.374;6.170;2022-10-17T11:25:49;9.18;;;6.03;;
74371;SDS011;62885;51.374;6.170;2022-10-17T11:28:17;13.85;;;6.05;;
74371;SDS011;62885;51.374;6.170;2022-10-17T11:33:24;10.65;;;5.28;;
74371;SDS011;62885;51.374;6.170;2022-10-17T11:35:56;10.48;;;4.53;;
74371;SDS011;62885;51.374;6.170;2022-10-17T11:41:18;8.45;;;5.03;;
74371;SDS011;62885;51.374;6.170;2022-10-17T11:43:50;11.80;;;5.55;;
74371;SDS011;62885;51.374;6.170;2022-10-17T11:46:22;8.73;;;5.07;;
74371;SDS011;62885;51.374;6.170;2022-10-17T11:51:23;12.93;;;5.90;;
74371;SDS011;62885;51.374;6.170;2022-10-17T11:56:48;8.43;;;4.65;;
74371;SDS011;62885;51.374;6.170;2022-10-17T12:02:30;9.50;;;5.15;;
74371;SDS011;62885;51.374;6.170;2022-10-17T12:05:11;9.63;;;5.35;;
74371;SDS011;62885;51.374;6.170;2022-10-17T12:07:55;10.20;;;5.43;;
74371;SDS011;62885;51.374;6.170;2022-10-17T12:10:42;10.32;;;4.50;;
74371;SDS011;62885;51.374;6.170;2022-10-17T12:15:56;9.50;;;4.03;;
74371;SDS011;62885;51.374;6.170;2022-10-17T12:18:41;7.45;;;4.40;;
74371;SDS011;62885;51.374;6.170;2022-10-17T12:21:07;8.20;;;4.53;;
74371;SDS011;62885;51.374;6.170;2022-10-17T12:23:32;10.32;;;4.80;;
74371;SDS011;62885;51.374;6.170;2022-10-17T12:26:01;9.00;;;5.10;;
74371;SDS011;62885;51.374;6.170;2022-10-17T12:38:41;8.27;;;4.22;;
74371;SDS011;62885;51.374;6.170;2022-10-17T12:41:07;10.98;;;5.70;;
74371;SDS011;62885;51.374;6.170;2022-10-17T12:43:34;10.13;;;5.30;;
74371;SDS011;62885;51.374;6.170;2022-10-17T12:46:02;10.45;;;4.53;;
74371;SDS011;62885;51.374;6.170;2022-10-17T12:54:00;8.15;;;4.38;;
74371;SDS011;62885;51.374;6.170;2022-10-17T12:56:39;9.63;;;4.32;;
74371;SDS011;62885;51.374;6.170;2022-10-17T12:59:15;8.35;;;4.70;;
74371;SDS011;62885;51.374;6.170;2022-10-17T13:01:52;9.85;;;4.55;;
74371;SDS011;62885;51.374;6.170;2022-10-17T13:04:21;8.57;;;4.18;;
74371;SDS011;62885;51.374;6.170;2022-10-17T13:06:48;8.02;;;4.35;;
74371;SDS011;62885;51.374;6.170;2022-10-17T13:09:23;8.73;;;4.75;;
74371;SDS011;62885;51.374;6.170;2022-10-17T13:11:49;12.77;;;4.60;;
74371;SDS011;62885;51.374;6.170;2022-10-17T13:14:16;10.43;;;4.70;;
74371;SDS011;62885;51.374;6.170;2022-10-17T13:16:57;10.75;;;4.63;;
74371;SDS011;62885;51.374;6.170;2022-10-17T13:19:25;8.02;;;4.50;;
74371;SDS011;62885;51.374;6.170;2022-10-17T13:21:55;10.30;;;4.45;;
74371;SDS011;62885;51.374;6.170;2022-10-17T13:24:28;8.48;;;4.30;;
74371;SDS011;62885;51.374;6.170;2022-10-17T13:26:54;10.75;;;4.88;;
74371;SDS011;62885;51.374;6.170;2022-10-17T13:29:19;9.20;;;4.22;;
74371;SDS011;62885;51.374;6.170;2022-10-17T13:31:50;8.00;;;4.32;;
74371;SDS011;62885;51.374;6.170;2022-10-17T13:34:25;13.60;;;4.97;;
74371;SDS011;62885;51.374;6.170;2022-10-17T13:36:58;7.80;;;4.28;;
74371;SDS011;62885;51.374;6.170;2022-10-17T13:39:27;10.93;;;4.18;;
74371;SDS011;62885;51.374;6.170;2022-10-17T13:41:57;10.10;;;4.65;;
74371;SDS011;62885;51.374;6.170;2022-10-17T13:44:24;10.68;;;4.32;;
74371;SDS011;62885;51.374;6.170;2022-10-17T13:46:51;9.65;;;4.38;;
74371;SDS011;62885;51.374;6.170;2022-10-17T13:51:54;8.00;;;4.82;;
74371;SDS011;62885;51.374;6.170;2022-10-17T13:54:30;8.75;;;4.32;;
74371;SDS011;62885;51.374;6.170;2022-10-17T13:56:58;8.48;;;4.00;;
74371;SDS011;62885;51.374;6.170;2022-10-17T13:59:26;8.50;;;4.47;;
74371;SDS011;62885;51.374;6.170;2022-10-17T14:01:58;7.18;;;4.45;;
74371;SDS011;62885;51.374;6.170;2022-10-17T14:04:25;9.48;;;4.40;;
74371;SDS011;62885;51.374;6.170;2022-10-17T14:06:51;6.95;;;4.18;;
74371;SDS011;62885;51.374;6.170;2022-10-17T14:09:19;8.98;;;4.10;;
74371;SDS011;62885;51.374;6.170;2022-10-17T14:12:01;10.20;;;3.97;;
74371;SDS011;62885;51.374;6.170;2022-10-17T14:14:31;7.20;;;3.97;;
74371;SDS011;62885;51.374;6.170;2022-10-17T14:16:57;9.43;;;4.32;;
74371;SDS011;62885;51.374;6.170;2022-10-17T14:19:24;7.90;;;3.85;;
74371;SDS011;62885;51.374;6.170;2022-10-17T14:21:55;8.05;;;3.83;;
74371;SDS011;62885;51.374;6.170;2022-10-17T14:24:41;11.90;;;4.10;;
74371;SDS011;62885;51.374;6.170;2022-10-17T14:30:45;9.82;;;3.95;;
74371;SDS011;62885;51.374;6.170;2022-10-17T14:32:51;8.25;;;4.05;;
74371;SDS011;62885;51.374;6.170;2022-10-17T14:35:20;11.63;;;3.78;;
74371;SDS011;62885;51.374;6.170;2022-10-17T14:37:47;12.40;;;4.43;;
74371;SDS011;62885;51.374;6.170;2022-10-17T14:40:18;8.50;;;4.18;;
74371;SDS011;62885;51.374;6.170;2022-10-17T14:42:45;10.70;;;3.67;;
74371;SDS011;62885;51.374;6.170;2022-10-17T14:45:14;13.23;;;5.45;;
74371;SDS011;62885;51.374;6.170;2022-10-17T14:47:48;9.27;;;5.43;;
74371;SDS011;62885;51.374;6.170;2022-10-17T14:52:39;12.30;;;4.97;;
74371;SDS011;62885;51.374;6.170;2022-10-17T14:55:23;14.68;;;5.20;;
74371;SDS011;62885;51.374;6.170;2022-10-17T14:57:50;9.77;;;5.28;;
74371;SDS011;62885;51.374;6.170;2022-10-17T15:00:16;13.63;;;5.13;;
74371;SDS011;62885;51.374;6.170;2022-10-17T15:02:43;12.05;;;4.93;;
74371;SDS011;62885;51.374;6.170;2022-10-17T15:05:10;8.25;;;4.90;;
74371;SDS011;62885;51.374;6.170;2022-10-17T15:07:36;13.02;;;6.28;;
74371;SDS011;62885;51.374;6.170;2022-10-17T15:10:01;10.88;;;4.78;;
74371;SDS011;62885;51.374;6.170;2022-10-17T15:12:27;8.13;;;5.03;;
74371;SDS011;62885;51.374;6.170;2022-10-17T15:14:52;12.70;;;5.63;;
74371;SDS011;62885;51.374;6.170;2022-10-17T15:17:25;10.55;;;5.60;;
74371;SDS011;62885;51.374;6.170;2022-10-17T15:19:52;12.25;;;5.90;;
74371;SDS011;62885;51.374;6.170;2022-10-17T15:22:17;10.90;;;5.50;;
74371;SDS011;62885;51.374;6.170;2022-10-17T15:24:43;11.82;;;5.10;;
74371;SDS011;62885;51.374;6.170;2022-10-17T15:27:13;9.95;;;5.35;;
74371;SDS011;62885;51.374;6.170;2022-10-17T15:29:40;10.98;;;6.68;;
74371;SDS011;62885;51.374;6.170;2022-10-17T15:32:05;10.63;;;6.60;;
74371;SDS011;62885;51.374;6.170;2022-10-17T15:34:31;9.00;;;5.03;;
74371;SDS011;62885;51.374;6.170;2022-10-17T15:36:56;7.90;;;5.00;;
74371;SDS011;62885;51.374;6.170;2022-10-17T15:39:25;10.60;;;6.00;;
74371;SDS011;62885;51.374;6.170;2022-10-17T15:41:50;9.80;;;5.63;;
74371;SDS011;62885;51.374;6.170;2022-10-17T15:44:15;12.68;;;6.45;;
74371;SDS011;62885;51.374;6.170;2022-10-17T15:46:41;10.52;;;6.78;;
74371;SDS011;62885;51.374;6.170;2022-10-17T15:49:09;10.68;;;6.57;;
74371;SDS011;62885;51.374;6.170;2022-10-17T15:51:37;13.05;;;6.88;;
74371;SDS011;62885;51.374;6.170;2022-10-17T15:54:02;9.75;;;5.22;;
74371;SDS011;62885;51.374;6.170;2022-10-17T15:56:30;10.98;;;6.07;;
74371;SDS011;62885;51.374;6.170;2022-10-17T15:59:03;12.20;;;5.57;;
74371;SDS011;62885;51.374;6.170;2022-10-17T16:01:40;12.75;;;6.15;;
74371;SDS011;62885;51.374;6.170;2022-10-17T16:04:10;13.88;;;5.70;;
74371;SDS011;62885;51.374;6.170;2022-10-17T16:06:38;10.13;;;6.68;;
74371;SDS011;62885;51.374;6.170;2022-10-17T16:09:04;9.95;;;6.15;;
74371;SDS011;62885;51.374;6.170;2022-10-17T16:13:57;10.48;;;6.45;;
74371;SDS011;62885;51.374;6.170;2022-10-17T16:16:24;13.57;;;6.65;;
74371;SDS011;62885;51.374;6.170;2022-10-17T16:18:50;11.70;;;6.00;;
74371;SDS011;62885;51.374;6.170;2022-10-17T16:21:16;15.88;;;7.38;;
74371;SDS011;62885;51.374;6.170;2022-10-17T16:23:43;11.30;;;6.32;;
74371;SDS011;62885;51.374;6.170;2022-10-17T16:26:09;13.02;;;6.68;;
74371;SDS011;62885;51.374;6.170;2022-10-17T16:28:34;10.52;;;6.40;;
74371;SDS011;62885;51.374;6.170;2022-10-17T16:31:00;10.32;;;6.30;;
74371;SDS011;62885;51.374;6.170;2022-10-17T16:33:25;10.93;;;6.38;;
74371;SDS011;62885;51.374;6.170;2022-10-17T16:35:51;11.10;;;6.60;;